createdAt,value
2023-02-15T00:00:42.447Z,3.29
2023-02-15T00:01:44.287Z,3.10
2023-02-15T00:02:46.138Z,3.21
2023-02-15T00:03:47.951Z,3.12
2023-02-15T00:04:49.770Z,3.18
2023-02-15T00:05:51.606Z,2.89
2023-02-15T00:06:53.432Z,2.74
2023-02-15T00:07:55.238Z,2.70
2023-02-15T00:08:57.068Z,3.05
2023-02-15T00:09:58.919Z,2.41
2023-02-15T00:11:00.794Z,2.55
2023-02-15T00:12:02.622Z,3.09
2023-02-15T00:13:04.424Z,2.74
2023-02-15T00:14:06.231Z,2.83
2023-02-15T00:15:08.060Z,2.61
2023-02-15T00:16:10.403Z,2.81
2023-02-15T00:17:12.200Z,2.46
2023-02-15T00:18:14.042Z,2.44
2023-02-15T00:19:15.841Z,2.76
2023-02-15T00:20:17.953Z,2.70
2023-02-15T00:21:21.144Z,2.44
2023-02-15T00:22:22.986Z,2.52
2023-02-15T00:23:24.799Z,2.89
2023-02-15T00:24:26.644Z,2.50
2023-02-15T00:25:28.475Z,2.63
2023-02-15T00:26:30.354Z,2.59
2023-02-15T00:27:32.184Z,2.57
2023-02-15T00:28:33.998Z,2.83
2023-02-15T00:29:35.825Z,3.18
2023-02-15T00:30:37.679Z,2.83
2023-02-15T00:31:39.607Z,2.35
2023-02-15T00:32:41.432Z,3.27
2023-02-15T00:33:43.260Z,2.87
2023-02-15T00:34:45.103Z,2.85
2023-02-15T00:35:46.923Z,2.68
2023-02-15T00:36:48.794Z,2.25
2023-02-15T00:37:50.631Z,2.48
2023-02-15T00:38:52.428Z,2.64
2023-02-15T00:39:54.272Z,2.37
2023-02-15T00:40:56.069Z,2.25
2023-02-15T00:41:57.929Z,2.69
2023-02-15T00:43:00.044Z,2.57
2023-02-15T00:44:01.860Z,2.67
2023-02-15T00:45:03.692Z,2.50
2023-02-15T00:46:05.538Z,2.53
2023-02-15T00:47:07.371Z,2.04
2023-02-15T00:48:09.193Z,2.72
2023-02-15T00:49:11.035Z,3.71
2023-02-15T00:50:13.169Z,3.31
2023-02-15T00:51:15.017Z,3.07
2023-02-15T00:52:16.902Z,5.97
2023-02-15T00:53:18.730Z,5.89
2023-02-15T00:54:20.558Z,5.11
2023-02-15T00:55:22.365Z,3.43
2023-02-15T00:56:24.206Z,3.15
2023-02-15T00:57:26.078Z,2.95
2023-02-15T00:58:27.902Z,2.49
2023-02-15T00:59:29.703Z,2.39
2023-02-15T01:00:31.516Z,2.59
2023-02-15T01:01:33.366Z,2.67
2023-02-15T01:02:35.211Z,2.96
2023-02-15T01:03:37.118Z,3.01
2023-02-15T01:04:38.988Z,2.62
2023-02-15T01:05:40.846Z,3.00
2023-02-15T01:07:46.609Z,2.54
2023-02-15T01:08:48.499Z,2.73
2023-02-15T01:09:50.386Z,2.49
2023-02-15T01:10:52.201Z,3.19
2023-02-15T01:11:54.023Z,2.85
2023-02-15T01:12:55.919Z,3.74
2023-02-15T01:13:57.751Z,3.62
2023-02-15T01:14:59.557Z,3.35
2023-02-15T01:16:02.004Z,3.33
2023-02-15T01:17:04.058Z,3.59
2023-02-15T01:18:05.938Z,4.15
2023-02-15T01:19:07.762Z,3.42
2023-02-15T01:20:09.711Z,3.95
2023-02-15T01:21:11.524Z,4.45
2023-02-15T01:22:13.361Z,5.15
2023-02-15T01:23:15.220Z,4.95
2023-02-15T01:24:17.040Z,5.00
2023-02-15T01:25:18.850Z,4.86
2023-02-15T01:26:20.667Z,4.89
2023-02-15T01:27:22.483Z,5.99
2023-02-15T01:28:24.342Z,5.71
2023-02-15T01:29:26.175Z,6.05
2023-02-15T01:30:27.999Z,6.04
2023-02-15T01:31:30.013Z,6.52
2023-02-15T01:32:31.974Z,5.57
2023-02-15T01:33:33.830Z,5.48
2023-02-15T01:34:35.649Z,4.00
2023-02-15T01:35:37.458Z,3.64
2023-02-15T01:36:39.281Z,4.05
2023-02-15T01:37:41.107Z,4.77
2023-02-15T01:38:43.070Z,4.06
2023-02-15T01:39:44.953Z,3.98
2023-02-15T01:40:46.887Z,3.86
2023-02-15T01:41:48.763Z,3.75
2023-02-15T01:42:50.603Z,4.19
2023-02-15T01:43:52.477Z,4.11
2023-02-15T01:44:54.291Z,4.32
2023-02-15T01:45:56.157Z,4.64
2023-02-15T01:46:58.083Z,4.28
2023-02-15T01:47:59.907Z,5.63
2023-02-15T01:49:01.762Z,6.47
2023-02-15T01:50:03.593Z,7.59
2023-02-15T01:51:05.444Z,8.12
2023-02-15T01:52:07.242Z,8.71
2023-02-15T01:53:09.061Z,8.13
2023-02-15T01:54:10.934Z,10.13
2023-02-15T01:55:12.777Z,9.11
2023-02-15T01:56:14.815Z,9.80
2023-02-15T01:57:16.613Z,9.39
2023-02-15T01:58:18.467Z,8.95
2023-02-15T02:00:47.865Z,7.84
2023-02-15T02:01:49.698Z,8.41
2023-02-15T02:02:51.585Z,7.50
2023-02-15T02:03:53.448Z,6.46
2023-02-15T02:04:55.368Z,7.29
2023-02-15T02:05:57.204Z,6.81
2023-02-15T02:06:59.046Z,6.29
2023-02-15T02:08:00.874Z,6.60
2023-02-15T02:09:02.695Z,7.54
2023-02-15T02:10:05.056Z,7.17
2023-02-15T02:11:06.899Z,7.26
2023-02-15T02:12:08.723Z,7.47
2023-02-15T02:13:10.560Z,7.07
2023-02-15T02:14:12.458Z,8.16
2023-02-15T02:15:14.379Z,7.76
2023-02-15T02:16:18.073Z,8.28
2023-02-15T02:17:19.941Z,7.05
2023-02-15T02:18:21.790Z,6.78
2023-02-15T02:19:23.609Z,6.96
2023-02-15T02:20:25.577Z,6.91
2023-02-15T02:21:27.398Z,6.29
2023-02-15T02:22:29.208Z,6.23
2023-02-15T02:23:31.012Z,6.08
2023-02-15T02:24:32.837Z,5.41
2023-02-15T02:25:34.737Z,5.41
2023-02-15T02:26:36.542Z,5.77
2023-02-15T02:27:38.364Z,6.18
2023-02-15T02:28:40.211Z,6.33
2023-02-15T02:29:42.024Z,6.63
2023-02-15T02:30:44.098Z,6.17
2023-02-15T02:31:45.991Z,6.65
2023-02-15T02:32:47.875Z,6.34
2023-02-15T02:33:49.721Z,6.79
2023-02-15T02:34:51.513Z,6.55
2023-02-15T02:35:53.371Z,7.27
2023-02-15T02:36:55.198Z,7.05
2023-02-15T02:37:57.008Z,7.29
2023-02-15T02:38:58.807Z,7.26
2023-02-15T02:41:04.627Z,7.58
2023-02-15T02:42:06.472Z,7.29
2023-02-15T02:43:08.290Z,7.11
2023-02-15T02:44:10.104Z,7.67
2023-02-15T02:45:11.963Z,7.01
2023-02-15T02:46:13.927Z,8.03
2023-02-15T02:47:15.801Z,7.28
2023-02-15T02:48:17.630Z,7.23
2023-02-15T02:49:19.511Z,6.33
2023-02-15T02:50:21.364Z,5.91
2023-02-15T02:51:23.223Z,5.46
2023-02-15T02:52:25.035Z,5.95
2023-02-15T02:53:26.840Z,6.07
2023-02-15T02:54:28.656Z,6.32
2023-02-15T02:55:30.473Z,5.04
2023-02-15T02:56:32.373Z,5.59
2023-02-15T02:57:34.241Z,5.54
2023-02-15T02:58:36.030Z,5.88
2023-02-15T02:59:37.855Z,6.50
2023-02-15T03:00:39.663Z,5.81
2023-02-15T03:01:42.718Z,5.51
2023-02-15T03:02:44.740Z,6.22
2023-02-15T03:03:46.570Z,6.43
2023-02-15T03:04:48.375Z,6.12
2023-02-15T03:05:50.197Z,5.55
2023-02-15T03:06:52.073Z,5.03
2023-02-15T03:07:53.898Z,5.77
2023-02-15T03:08:55.719Z,5.63
2023-02-15T03:09:57.533Z,5.75
2023-02-15T03:10:59.376Z,6.09
2023-02-15T03:12:01.270Z,5.55
2023-02-15T03:13:03.055Z,5.25
2023-02-15T03:14:04.874Z,6.11
2023-02-15T03:15:06.713Z,5.66
2023-02-15T03:16:09.952Z,5.63
2023-02-15T03:17:11.825Z,6.30
2023-02-15T03:18:13.658Z,6.73
2023-02-15T03:19:15.451Z,6.69
2023-02-15T03:20:17.362Z,6.79
2023-02-15T03:21:19.177Z,6.84
2023-02-15T03:22:21.040Z,6.63
2023-02-15T03:23:22.853Z,7.31
2023-02-15T03:24:26.247Z,7.14
2023-02-15T03:25:28.303Z,7.57
2023-02-15T03:26:30.103Z,7.02
2023-02-15T03:27:32.003Z,6.57
2023-02-15T03:28:33.832Z,6.46
2023-02-15T03:29:35.651Z,5.26
2023-02-15T03:30:37.513Z,5.59
2023-02-15T03:31:39.884Z,6.62
2023-02-15T03:32:41.721Z,8.62
2023-02-15T03:33:43.553Z,8.21
2023-02-15T03:37:57.136Z,7.94
2023-02-15T03:40:20.465Z,6.94
2023-02-15T03:41:22.331Z,7.57
2023-02-15T03:42:24.210Z,5.44
2023-02-15T03:43:26.149Z,5.84
2023-02-15T03:44:27.973Z,5.39
2023-02-15T03:45:29.772Z,5.91
2023-02-15T03:46:31.669Z,6.33
2023-02-15T03:47:33.434Z,5.69
2023-02-15T03:48:36.239Z,5.06
2023-02-15T03:49:38.078Z,4.92
2023-02-15T03:50:39.910Z,4.70
2023-02-15T03:51:41.740Z,6.68
2023-02-15T03:52:43.556Z,6.54
2023-02-15T03:53:46.471Z,4.97
2023-02-15T03:54:48.345Z,5.71
2023-02-15T03:55:50.168Z,5.52
2023-02-15T03:56:51.990Z,6.49
2023-02-15T03:57:53.822Z,5.97
2023-02-15T03:58:55.727Z,4.97
2023-02-15T03:59:57.560Z,6.09
2023-02-15T04:00:59.406Z,6.54
2023-02-15T04:02:01.183Z,6.51
2023-02-15T04:03:03.099Z,6.47
2023-02-15T04:04:04.992Z,7.15
2023-02-15T04:05:06.811Z,7.53
2023-02-15T04:06:08.766Z,7.61
2023-02-15T04:07:10.593Z,6.38
2023-02-15T04:09:17.808Z,7.84
2023-02-15T04:10:19.737Z,6.99
2023-02-15T04:11:21.549Z,6.99
2023-02-15T04:12:25.463Z,7.29
2023-02-15T04:13:27.294Z,7.17
2023-02-15T04:14:29.245Z,6.23
2023-02-15T04:15:31.083Z,6.14
2023-02-15T04:16:32.915Z,5.47
2023-02-15T04:17:34.711Z,5.55
2023-02-15T04:18:36.533Z,5.57
2023-02-15T04:19:38.414Z,6.69
2023-02-15T04:20:40.244Z,6.53
2023-02-15T04:21:42.053Z,6.70
2023-02-15T04:22:43.897Z,7.05
2023-02-15T04:23:45.722Z,6.19
2023-02-15T04:24:47.566Z,6.54
2023-02-15T04:25:49.389Z,6.51
2023-02-15T04:26:51.208Z,6.69
2023-02-15T04:28:56.953Z,6.35
2023-02-15T04:29:58.858Z,5.71
2023-02-15T04:31:00.689Z,6.67
2023-02-15T04:32:02.590Z,5.35
2023-02-15T04:33:04.445Z,5.32
2023-02-15T04:34:06.334Z,4.71
2023-02-15T04:35:08.250Z,5.74
2023-02-15T04:36:10.639Z,6.47
2023-02-15T04:37:12.470Z,5.53
2023-02-15T04:38:14.307Z,5.63
2023-02-15T04:39:16.130Z,5.89
2023-02-15T04:40:19.703Z,5.06
2023-02-15T04:41:21.739Z,5.86
2023-02-15T04:43:27.471Z,6.66
2023-02-15T04:44:29.285Z,5.91
2023-02-15T04:45:31.181Z,5.67
2023-02-15T04:46:32.981Z,6.15
2023-02-15T04:47:34.802Z,5.46
2023-02-15T04:48:36.610Z,6.65
2023-02-15T04:49:38.422Z,5.66
2023-02-15T04:50:40.387Z,6.69
2023-02-15T04:51:42.234Z,5.06
2023-02-15T04:52:44.072Z,5.48
2023-02-15T04:53:45.895Z,4.51
2023-02-15T04:54:47.736Z,4.77
2023-02-15T04:55:51.517Z,5.37
2023-02-15T04:56:53.661Z,5.76
2023-02-15T04:57:55.499Z,5.08
2023-02-15T04:58:57.316Z,5.11
2023-02-15T04:59:59.135Z,5.47
2023-02-15T05:01:01.063Z,5.47
2023-02-15T05:02:02.918Z,6.23
2023-02-15T05:04:08.693Z,5.78
2023-02-15T05:05:10.815Z,5.63
2023-02-15T05:06:13.509Z,5.62
2023-02-15T05:07:15.332Z,6.16
2023-02-15T05:08:17.146Z,6.32
2023-02-15T05:09:18.965Z,6.11
2023-02-15T05:10:20.800Z,6.70
2023-02-15T05:11:24.561Z,7.97
2023-02-15T05:13:32.782Z,9.03
2023-02-15T05:14:34.611Z,9.37
2023-02-15T05:15:36.444Z,12.56
2023-02-15T05:16:38.381Z,11.41
2023-02-15T05:17:40.266Z,8.81
2023-02-15T05:19:47.017Z,11.19
2023-02-15T05:20:48.857Z,9.81
2023-02-15T05:21:50.732Z,10.03
2023-02-15T05:23:56.466Z,9.01
2023-02-15T05:24:58.307Z,8.22
2023-02-15T05:26:00.468Z,8.16
2023-02-15T05:27:02.610Z,8.58
2023-02-15T05:28:05.330Z,8.46
2023-02-15T05:29:07.283Z,6.58
2023-02-15T05:30:09.285Z,8.12
2023-02-15T05:31:11.482Z,7.57
2023-02-15T05:32:13.636Z,7.55
2023-02-15T05:33:15.565Z,7.55
2023-02-15T05:34:17.399Z,7.70
2023-02-15T05:35:19.282Z,8.27
2023-02-15T05:36:23.200Z,7.29
2023-02-15T05:37:25.091Z,6.60
2023-02-15T05:38:26.907Z,6.54
2023-02-15T05:39:28.728Z,6.76
2023-02-15T05:40:30.587Z,7.33
2023-02-15T05:41:32.368Z,8.34
2023-02-15T05:42:34.229Z,8.19
2023-02-15T05:43:36.064Z,9.77
2023-02-15T05:44:37.904Z,12.19
2023-02-15T05:45:41.066Z,13.30
2023-02-15T05:46:42.933Z,13.54
2023-02-15T05:47:44.803Z,15.21
2023-02-15T05:48:46.612Z,15.19
2023-02-15T05:49:48.422Z,15.38
2023-02-15T05:50:50.255Z,14.93
2023-02-15T05:51:52.080Z,15.66
2023-02-15T05:52:53.966Z,17.32
2023-02-15T05:54:59.763Z,16.41
2023-02-15T05:57:05.541Z,17.46
2023-02-15T05:58:07.418Z,19.79
2023-02-15T06:00:13.161Z,18.12
2023-02-15T06:01:14.978Z,17.21
2023-02-15T06:02:16.834Z,19.60
2023-02-15T06:03:19.934Z,16.62
2023-02-15T06:04:21.814Z,13.91
2023-02-15T06:05:23.630Z,14.79
2023-02-15T06:06:25.492Z,15.38
2023-02-15T06:07:27.383Z,13.65
2023-02-15T06:08:29.292Z,13.52
2023-02-15T06:09:31.165Z,12.27
2023-02-15T06:10:33.002Z,11.27
2023-02-15T06:11:34.812Z,11.01
2023-02-15T06:12:36.687Z,10.91
2023-02-15T06:13:39.133Z,10.05
2023-02-15T06:14:41.077Z,9.94
2023-02-15T06:15:42.985Z,9.59
2023-02-15T06:16:45.004Z,10.05
2023-02-15T06:17:46.836Z,9.59
2023-02-15T06:18:48.742Z,10.35
2023-02-15T06:19:50.650Z,10.05
2023-02-15T06:20:52.849Z,10.13
2023-02-15T06:21:54.698Z,11.62
2023-02-15T06:22:56.907Z,9.77
2023-02-15T06:23:58.790Z,9.49
2023-02-15T06:25:00.640Z,7.37
2023-02-15T06:26:02.756Z,8.01
2023-02-15T06:27:04.762Z,7.15
2023-02-15T06:28:06.636Z,6.22
2023-02-15T06:29:08.477Z,5.64
2023-02-15T06:30:10.776Z,5.37
2023-02-15T06:31:12.722Z,5.91
2023-02-15T06:32:14.679Z,6.63
2023-02-15T06:33:16.622Z,6.21
2023-02-15T06:34:18.472Z,6.08
2023-02-15T06:35:20.310Z,7.19
2023-02-15T06:36:22.157Z,8.27
2023-02-15T06:37:24.032Z,7.35
2023-02-15T06:38:25.916Z,7.70
2023-02-15T06:39:27.792Z,7.42
2023-02-15T06:40:29.604Z,6.86
2023-02-15T06:41:31.446Z,6.59
2023-02-15T06:42:33.285Z,6.65
2023-02-15T06:43:35.123Z,6.87
2023-02-15T06:44:36.981Z,5.67
2023-02-15T06:45:38.815Z,5.65
2023-02-15T06:46:40.760Z,5.22
2023-02-15T06:47:42.534Z,5.10
2023-02-15T06:48:44.354Z,4.98
2023-02-15T06:49:46.272Z,4.50
2023-02-15T06:50:48.086Z,4.61
2023-02-15T06:51:49.936Z,4.79
2023-02-15T06:52:51.748Z,4.87
2023-02-15T06:53:53.567Z,4.92
2023-02-15T06:54:55.472Z,5.71
2023-02-15T06:55:57.401Z,5.46
2023-02-15T06:56:59.322Z,4.87
2023-02-15T06:58:01.166Z,4.71
2023-02-15T06:59:03.011Z,4.77
2023-02-15T07:00:04.923Z,4.63
2023-02-15T07:01:06.758Z,7.35
2023-02-15T07:02:08.773Z,13.73
2023-02-15T07:03:10.565Z,12.95
2023-02-15T07:04:12.366Z,16.12
2023-02-15T07:05:14.316Z,11.19
2023-02-15T07:06:16.692Z,10.19
2023-02-15T07:07:18.557Z,9.17
2023-02-15T07:08:20.438Z,8.01
2023-02-15T07:09:22.322Z,8.35
2023-02-15T07:10:24.180Z,8.81
2023-02-15T07:11:25.994Z,9.25
2023-02-15T07:12:27.858Z,12.41
2023-02-15T07:13:29.679Z,11.31
2023-02-15T07:14:31.495Z,12.97
2023-02-15T07:15:33.382Z,13.13
2023-02-15T07:16:35.218Z,12.33
2023-02-15T07:17:37.195Z,13.55
2023-02-15T07:18:39.108Z,11.43
2023-02-15T07:19:40.961Z,11.11
2023-02-15T07:20:42.880Z,10.59
2023-02-15T07:21:44.683Z,10.17
2023-02-15T07:22:46.516Z,10.72
2023-02-15T07:23:48.365Z,10.94
2023-02-15T07:24:50.221Z,8.28
2023-02-15T07:25:52.126Z,8.41
2023-02-15T07:26:54.088Z,8.45
2023-02-15T07:27:55.913Z,8.05
2023-02-15T07:28:57.734Z,7.81
2023-02-15T07:29:59.601Z,8.81
2023-02-15T07:31:01.624Z,6.73
2023-02-15T07:32:03.515Z,6.92
2023-02-15T07:33:05.919Z,7.01
2023-02-15T07:34:07.871Z,6.05
2023-02-15T07:35:09.700Z,6.05
2023-02-15T07:36:12.480Z,5.95
2023-02-15T07:37:14.334Z,5.17
2023-02-15T07:38:16.158Z,4.30
2023-02-15T07:39:18.026Z,4.99
2023-02-15T07:40:20.238Z,5.83
2023-02-15T07:41:22.096Z,5.74
2023-02-15T07:42:23.950Z,4.98
2023-02-15T07:43:25.774Z,4.76
2023-02-15T07:44:27.620Z,5.36
2023-02-15T07:45:29.417Z,5.36
2023-02-15T07:46:31.418Z,5.02
2023-02-15T07:47:33.294Z,6.07
2023-02-15T07:48:35.098Z,4.84
2023-02-15T07:49:36.908Z,4.58
2023-02-15T07:50:38.730Z,4.75
2023-02-15T07:51:40.613Z,3.51
2023-02-15T07:52:42.446Z,3.77
2023-02-15T07:53:44.266Z,4.46
2023-02-15T07:54:46.083Z,4.13
2023-02-15T07:55:47.892Z,3.36
2023-02-15T07:56:49.757Z,3.82
2023-02-15T07:57:51.580Z,3.62
2023-02-15T07:58:53.385Z,5.17
2023-02-15T07:59:55.225Z,5.06
2023-02-15T08:00:57.087Z,4.79
2023-02-15T08:01:58.951Z,4.68
2023-02-15T08:03:00.915Z,4.90
2023-02-15T08:04:02.910Z,5.47
2023-02-15T08:05:04.906Z,5.69
2023-02-15T08:06:06.888Z,6.01
2023-02-15T08:07:08.804Z,3.67
2023-02-15T08:08:10.660Z,3.76
2023-02-15T08:09:12.508Z,3.41
2023-02-15T08:10:14.802Z,3.70
2023-02-15T08:11:16.625Z,4.37
2023-02-15T08:12:18.505Z,3.77
2023-02-15T08:13:20.415Z,4.95
2023-02-15T08:14:22.256Z,5.51
2023-02-15T08:15:24.097Z,4.98
2023-02-15T08:16:26.027Z,4.55
2023-02-15T08:17:27.941Z,4.67
2023-02-15T08:18:29.760Z,5.24
2023-02-15T08:19:31.599Z,4.99
2023-02-15T08:20:33.478Z,5.34
2023-02-15T08:21:35.324Z,5.43
2023-02-15T08:22:37.242Z,5.04
2023-02-15T08:23:39.081Z,4.07
2023-02-15T08:24:40.910Z,3.85
2023-02-15T08:25:42.727Z,3.46
2023-02-15T08:26:44.543Z,3.00
2023-02-15T08:27:46.576Z,4.33
2023-02-15T08:28:48.431Z,4.28
2023-02-15T08:29:50.284Z,4.27
2023-02-15T08:30:52.197Z,4.33
2023-02-15T08:31:54.113Z,4.18
2023-02-15T08:32:56.093Z,4.43
2023-02-15T08:33:57.920Z,4.48
2023-02-15T08:34:59.702Z,4.95
2023-02-15T08:36:01.550Z,6.13
2023-02-15T08:37:03.379Z,5.73
2023-02-15T08:38:05.227Z,4.61
2023-02-15T08:39:07.040Z,4.71
2023-02-15T08:40:09.360Z,5.35
2023-02-15T08:41:11.177Z,4.81
2023-02-15T08:42:12.994Z,4.72
2023-02-15T08:43:14.868Z,4.13
2023-02-15T08:44:16.704Z,4.16
2023-02-15T08:45:18.547Z,4.48
2023-02-15T08:46:21.572Z,5.67
2023-02-15T08:47:23.479Z,5.09
2023-02-15T08:48:25.350Z,4.27
2023-02-15T08:49:27.169Z,4.59
2023-02-15T08:50:29.178Z,3.75
2023-02-15T08:51:31.014Z,3.36
2023-02-15T08:52:32.884Z,3.28
2023-02-15T08:53:34.735Z,3.31
2023-02-15T08:54:36.603Z,6.27
2023-02-15T08:55:39.513Z,5.68
2023-02-15T08:56:41.410Z,5.33
2023-02-15T08:57:43.280Z,5.59
2023-02-15T08:58:45.187Z,4.83
2023-02-15T08:59:47.036Z,5.26
2023-02-15T09:00:48.900Z,5.06
2023-02-15T09:01:50.915Z,4.74
2023-02-15T09:02:52.785Z,5.69
2023-02-15T09:03:54.776Z,4.65
2023-02-15T09:04:56.604Z,3.81
2023-02-15T09:05:58.422Z,4.30
2023-02-15T09:07:00.258Z,5.27
2023-02-15T09:08:02.097Z,4.97
2023-02-15T09:09:04.017Z,4.91
2023-02-15T09:10:06.078Z,4.43
2023-02-15T09:11:07.930Z,4.21
2023-02-15T09:12:09.784Z,4.39
2023-02-15T09:13:11.643Z,4.09
2023-02-15T09:14:13.631Z,4.05
2023-02-15T09:15:15.476Z,4.01
2023-02-15T09:16:17.367Z,3.85
2023-02-15T09:17:19.194Z,3.83
2023-02-15T09:18:21.052Z,3.78
2023-02-15T09:19:22.927Z,4.07
2023-02-15T09:20:24.998Z,4.15
2023-02-15T09:21:26.870Z,4.70
2023-02-15T09:22:28.792Z,4.70
2023-02-15T09:23:30.642Z,4.12
2023-02-15T09:24:32.515Z,4.16
2023-02-15T09:25:34.384Z,3.75
2023-02-15T09:26:36.352Z,3.91
2023-02-15T09:27:38.178Z,4.25
2023-02-15T09:28:40.064Z,5.22
2023-02-15T09:29:41.980Z,5.53
2023-02-15T09:30:43.909Z,5.04
2023-02-15T09:31:46.169Z,4.13
2023-02-15T09:32:48.159Z,4.35
2023-02-15T09:33:50.053Z,3.94
2023-02-15T09:34:52.017Z,3.80
2023-02-15T09:35:53.861Z,4.16
2023-02-15T09:36:55.728Z,3.79
2023-02-15T09:37:57.567Z,3.71
2023-02-15T09:38:59.448Z,4.88
2023-02-15T09:40:01.348Z,4.35
2023-02-15T09:41:03.478Z,5.19
2023-02-15T09:42:05.545Z,4.73
2023-02-15T09:43:07.408Z,4.56
2023-02-15T09:44:09.226Z,4.67
2023-02-15T09:45:11.116Z,4.23
2023-02-15T09:46:13.637Z,4.04
2023-02-15T09:47:15.443Z,4.70
2023-02-15T09:48:17.330Z,4.50
2023-02-15T09:49:19.172Z,4.54
2023-02-15T09:50:21.036Z,4.11
2023-02-15T09:51:22.896Z,4.01
2023-02-15T09:52:24.731Z,3.86
2023-02-15T09:53:26.669Z,3.88
2023-02-15T09:54:28.641Z,3.86
2023-02-15T09:55:30.474Z,4.55
2023-02-15T09:56:32.332Z,4.70
2023-02-15T09:57:34.231Z,4.35
2023-02-15T09:58:36.175Z,5.07
2023-02-15T09:59:37.994Z,5.04
2023-02-15T10:00:39.892Z,6.03
2023-02-15T10:01:41.777Z,6.29
2023-02-15T10:02:43.622Z,7.33
2023-02-15T10:03:45.502Z,6.60
2023-02-15T10:04:47.359Z,5.57
2023-02-15T10:05:49.216Z,5.29
2023-02-15T10:06:51.045Z,5.67
2023-02-15T10:07:52.887Z,5.36
2023-02-15T10:08:54.696Z,6.98
2023-02-15T10:09:56.533Z,7.33
2023-02-15T10:10:58.723Z,7.30
2023-02-15T10:12:00.601Z,5.80
2023-02-15T10:13:02.444Z,5.81
2023-02-15T10:14:04.297Z,4.83
2023-02-15T10:15:06.141Z,5.91
2023-02-15T10:16:08.676Z,6.17
2023-02-15T10:17:10.528Z,5.19
2023-02-15T10:18:12.435Z,6.35
2023-02-15T10:19:14.343Z,5.87
2023-02-15T10:20:16.293Z,5.20
2023-02-15T10:21:18.202Z,5.33
2023-02-15T10:22:20.063Z,4.90
2023-02-15T10:23:21.922Z,6.06
2023-02-15T10:24:23.777Z,6.18
2023-02-15T10:25:25.638Z,6.61
2023-02-15T10:26:27.571Z,7.43
2023-02-15T10:27:29.441Z,7.34
2023-02-15T10:28:31.267Z,7.09
2023-02-15T10:29:33.140Z,6.12
2023-02-15T10:30:35.130Z,5.67
2023-02-15T10:31:37.325Z,5.30
2023-02-15T10:32:39.315Z,5.05
2023-02-15T10:33:41.154Z,6.35
2023-02-15T10:34:43.011Z,7.47
2023-02-15T10:35:44.839Z,6.57
2023-02-15T10:36:46.726Z,6.84
2023-02-15T10:37:48.547Z,7.29
2023-02-15T10:38:50.366Z,7.30
2023-02-15T10:39:52.202Z,6.61
2023-02-15T10:40:54.036Z,5.83
2023-02-15T10:41:55.895Z,5.74
2023-02-15T10:42:57.799Z,5.35
2023-02-15T10:43:59.619Z,5.03
2023-02-15T10:45:01.468Z,5.39
2023-02-15T10:46:03.321Z,4.90
2023-02-15T10:47:05.206Z,4.99
2023-02-15T10:48:07.042Z,4.56
2023-02-15T10:49:08.871Z,4.23
2023-02-15T10:50:11.528Z,4.29
2023-02-15T10:51:13.493Z,3.75
2023-02-15T10:52:15.360Z,3.67
2023-02-15T10:53:17.234Z,4.25
2023-02-15T10:54:19.060Z,3.88
2023-02-15T10:55:20.887Z,3.71
2023-02-15T10:56:22.866Z,4.09
2023-02-15T10:57:24.692Z,5.25
2023-02-15T10:58:26.508Z,4.35
2023-02-15T10:59:28.327Z,3.89
2023-02-15T11:00:30.183Z,4.68
2023-02-15T11:01:32.058Z,4.77
2023-02-15T11:02:33.997Z,4.15
2023-02-15T11:03:35.840Z,5.37
2023-02-15T11:04:37.706Z,4.31
2023-02-15T11:05:39.557Z,3.95
2023-02-15T11:06:41.386Z,3.67
2023-02-15T11:07:43.305Z,3.87
2023-02-15T11:08:45.168Z,4.35
2023-02-15T11:11:08.204Z,4.19
2023-02-15T11:12:10.406Z,4.36
2023-02-15T11:13:12.344Z,4.93
2023-02-15T11:14:14.214Z,5.04
2023-02-15T11:15:16.041Z,3.87
2023-02-15T11:16:19.000Z,3.79
2023-02-15T11:17:20.955Z,4.86
2023-02-15T11:18:22.856Z,4.47
2023-02-15T11:19:24.704Z,4.21
2023-02-15T11:20:26.570Z,3.87
2023-02-15T11:21:28.394Z,3.37
2023-02-15T11:22:30.268Z,3.51
2023-02-15T11:23:32.206Z,4.81
2023-02-15T11:24:34.081Z,7.46
2023-02-15T11:25:35.900Z,7.16
2023-02-15T11:26:37.748Z,5.61
2023-02-15T11:27:39.624Z,6.61
2023-02-15T11:28:41.568Z,4.51
2023-02-15T11:29:43.549Z,4.45
2023-02-15T11:30:45.531Z,5.04
2023-02-15T11:31:47.567Z,4.31
2023-02-15T11:32:49.483Z,4.21
2023-02-15T11:33:51.511Z,3.46
2023-02-15T11:34:53.340Z,4.04
2023-02-15T11:35:55.203Z,3.75
2023-02-15T11:36:57.004Z,3.42
2023-02-15T11:37:58.834Z,3.96
2023-02-15T11:39:00.751Z,3.57
2023-02-15T11:40:02.561Z,3.77
2023-02-15T11:41:08.456Z,4.43
2023-02-15T11:42:11.665Z,5.37
2023-02-15T11:43:13.619Z,4.86
2023-02-15T11:44:15.680Z,4.83
2023-02-15T11:45:17.519Z,4.90
2023-02-15T11:46:19.384Z,3.91
2023-02-15T11:47:21.329Z,4.03
2023-02-15T11:48:23.153Z,4.59
2023-02-15T11:49:25.003Z,5.21
2023-02-15T11:50:26.848Z,4.91
2023-02-15T11:51:29.963Z,5.37
2023-02-15T11:52:31.936Z,5.22
2023-02-15T11:53:33.792Z,6.38
2023-02-15T11:54:35.658Z,7.41
2023-02-15T11:55:37.488Z,8.16
2023-02-15T11:56:39.300Z,8.33
2023-02-15T11:57:41.131Z,6.49
2023-02-15T11:58:42.988Z,6.10
2023-02-15T12:00:46.042Z,6.58
2023-02-15T12:01:47.840Z,8.26
2023-02-15T12:02:49.739Z,7.73
2023-02-15T12:03:51.642Z,7.01
2023-02-15T12:04:53.474Z,6.06
2023-02-15T12:05:55.484Z,4.82
2023-02-15T12:07:02.252Z,5.62
2023-02-15T12:08:01.693Z,5.23
2023-02-15T12:09:03.544Z,5.95
2023-02-15T12:10:05.382Z,5.55
2023-02-15T12:11:07.241Z,4.59
2023-02-15T12:12:09.082Z,5.21
2023-02-15T12:13:10.913Z,6.29
2023-02-15T12:14:12.765Z,6.38
2023-02-15T12:15:14.621Z,6.34
2023-02-15T12:16:16.531Z,5.62
2023-02-15T12:17:18.396Z,7.61
2023-02-15T12:18:20.234Z,10.18
2023-02-15T12:19:23.295Z,9.28
2023-02-15T12:20:25.123Z,9.96
2023-02-15T12:21:27.711Z,11.15
2023-02-15T12:22:29.678Z,12.74
2023-02-15T12:23:31.477Z,15.00
2023-02-15T12:24:33.321Z,15.05
2023-02-15T12:25:35.158Z,14.10
2023-02-15T12:26:37.034Z,15.06
2023-02-15T12:27:38.875Z,16.17
2023-02-15T12:28:41.290Z,13.02
2023-02-15T12:29:43.254Z,12.88
2023-02-15T12:30:45.512Z,11.85
2023-02-15T12:31:47.581Z,10.16
2023-02-15T12:32:49.461Z,10.49
2023-02-15T12:33:51.330Z,12.26
2023-02-15T12:34:53.138Z,14.53
2023-02-15T12:35:54.977Z,14.57
2023-02-15T12:36:56.866Z,13.41
2023-02-15T12:37:58.736Z,16.17
2023-02-15T12:39:00.569Z,10.97
2023-02-15T12:40:02.416Z,10.67
2023-02-15T12:41:04.717Z,10.45
2023-02-15T12:42:06.929Z,9.25
2023-02-15T12:43:09.023Z,12.78
2023-02-15T12:44:14.531Z,10.47
2023-02-15T12:45:19.390Z,10.54
2023-02-15T12:46:18.861Z,11.24
2023-02-15T12:47:20.743Z,10.12
2023-02-15T12:48:22.573Z,9.55
2023-02-15T12:49:24.445Z,10.43
2023-02-15T12:50:26.254Z,10.21
2023-02-15T12:51:28.083Z,7.88
2023-02-15T12:52:29.993Z,7.71
2023-02-15T12:53:31.863Z,7.34
2023-02-15T12:54:33.705Z,7.04
2023-02-15T12:55:35.535Z,6.54
2023-02-15T12:56:37.572Z,6.06
2023-02-15T12:57:39.470Z,6.76
2023-02-15T12:58:41.386Z,5.94
2023-02-15T12:59:44.704Z,5.79
2023-02-15T13:00:46.844Z,5.03
2023-02-15T13:01:48.722Z,5.13
2023-02-15T13:02:50.578Z,5.71
2023-02-15T13:03:52.400Z,6.24
2023-02-15T13:04:54.252Z,6.50
2023-02-15T13:05:56.039Z,6.87
2023-02-15T13:06:57.859Z,6.39
2023-02-15T13:07:59.746Z,5.95
2023-02-15T13:09:01.591Z,6.53
2023-02-15T13:10:04.013Z,6.37
2023-02-15T13:11:05.857Z,5.72
2023-02-15T13:12:07.727Z,5.62
2023-02-15T13:13:09.594Z,5.55
2023-02-15T13:14:11.468Z,6.94
2023-02-15T13:15:13.316Z,7.28
2023-02-15T13:16:15.825Z,5.97
2023-02-15T13:17:17.630Z,6.83
2023-02-15T13:18:20.170Z,7.28
2023-02-15T13:19:22.013Z,7.08
2023-02-15T13:20:23.853Z,6.89
2023-02-15T13:21:25.751Z,6.68
2023-02-15T13:22:27.636Z,5.97
2023-02-15T13:23:29.548Z,5.93
2023-02-15T13:24:31.397Z,5.46
2023-02-15T13:25:33.231Z,6.49
2023-02-15T13:26:35.074Z,7.19
2023-02-15T13:27:37.017Z,7.04
2023-02-15T13:28:38.896Z,6.81
2023-02-15T13:29:42.547Z,6.45
2023-02-15T13:30:44.494Z,5.41
2023-02-15T13:31:46.413Z,5.49
2023-02-15T13:32:48.578Z,6.58
2023-02-15T13:33:50.480Z,6.87
2023-02-15T13:34:52.311Z,5.22
2023-02-15T13:35:54.165Z,3.96
2023-02-15T13:36:56.199Z,4.73
2023-02-15T13:37:58.048Z,3.79
2023-02-15T13:38:59.933Z,3.56
2023-02-15T13:40:01.842Z,3.47
2023-02-15T13:41:03.998Z,3.61
2023-02-15T13:42:05.963Z,4.13
2023-02-15T13:43:07.817Z,3.86
2023-02-15T13:44:09.673Z,3.81
2023-02-15T13:45:11.483Z,3.96
2023-02-15T13:46:14.307Z,3.62
2023-02-15T13:47:16.278Z,4.15
2023-02-15T13:48:18.112Z,4.03
2023-02-15T13:49:20.041Z,4.37
2023-02-15T13:50:22.086Z,6.93
2023-02-15T13:51:23.905Z,5.19
2023-02-15T13:52:25.757Z,4.97
2023-02-15T13:53:27.565Z,4.50
2023-02-15T13:54:29.445Z,4.21
2023-02-15T13:55:31.260Z,4.26
2023-02-15T13:56:33.105Z,4.65
2023-02-15T13:57:34.929Z,4.34
2023-02-15T13:58:36.781Z,5.59
2023-02-15T13:59:38.649Z,5.08
2023-02-15T14:00:40.625Z,5.23
2023-02-15T14:01:42.506Z,5.74
2023-02-15T14:02:44.341Z,6.12